Time;durP1;ratioP1;P1;durP2;ratioP2;P2;SDS_P1;SDS_P2;PMS_P1;PMS_P2;Temp;Humidity;BMP_temperature;BMP_pressure;BME280_temperature;BME280_humidity;BME280_pressure;Samples;Min_cycle;Max_cycle;Signal;HPM_P1;HPM_P2
2021/10/09 00:01:11;;;;;;;13.02;5.40;;;;;;;12.84;100.00;102621.75;5046559;28;20045;-63
2021/10/09 00:03:37;;;;;;;15.90;6.20;;;;;;;12.83;100.00;102625.59;5046922;28;20013;-65
2021/10/09 00:06:03;;;;;;;15.02;6.00;;;;;;;12.72;100.00;102626.25;5052972;28;20037;-63
2021/10/09 00:08:30;;;;;;;15.13;5.68;;;;;;;12.72;100.00;102621.63;5052345;28;20017;-63
2021/10/09 00:10:56;;;;;;;14.18;6.03;;;;;;;12.71;100.00;102622.75;5046215;28;20027;-63
2021/10/09 00:13:21;;;;;;;13.27;6.03;;;;;;;12.69;100.00;102614.97;5052757;28;20037;-64
2021/10/09 00:15:47;;;;;;;15.77;6.05;;;;;;;12.60;100.00;102614.16;5049898;28;20059;-64
2021/10/09 00:18:12;;;;;;;17.67;6.15;;;;;;;12.64;100.00;102612.41;5050597;28;20037;-62
2021/10/09 00:20:38;;;;;;;16.80;6.55;;;;;;;12.55;100.00;102616.22;5051854;28;20068;-64
2021/10/09 00:23:03;;;;;;;15.85;6.20;;;;;;;12.50;100.00;102611.78;5052951;28;20044;-63
2021/10/09 00:25:29;;;;;;;13.20;5.68;;;;;;;12.42;100.00;102612.59;5052703;28;20036;-65
2021/10/09 00:27:55;;;;;;;15.63;6.13;;;;;;;12.41;100.00;102611.00;5051739;28;20051;-64
2021/10/09 00:30:20;;;;;;;14.40;5.93;;;;;;;12.37;100.00;102612.75;5049842;28;20052;-63
2021/10/09 00:32:46;;;;;;;12.15;5.63;;;;;;;12.31;100.00;102607.84;5046315;28;20048;-64
2021/10/09 00:35:11;;;;;;;12.70;5.78;;;;;;;12.31;100.00;102613.25;5051791;28;20108;-66
2021/10/09 00:37:37;;;;;;;14.52;5.82;;;;;;;12.34;100.00;102615.28;5043734;28;20041;-63
2021/10/09 00:40:03;;;;;;;17.42;6.40;;;;;;;12.35;100.00;102609.56;5048716;28;20043;-63
2021/10/09 00:42:29;;;;;;;16.08;5.93;;;;;;;12.29;100.00;102604.66;5050821;28;20037;-64
2021/10/09 00:44:54;;;;;;;15.75;6.47;;;;;;;12.26;100.00;102616.88;5051574;28;20495;-64
2021/10/09 00:47:24;;;;;;;13.02;5.88;;;;;;;12.26;100.00;102616.88;5052829;28;20028;-64
2021/10/09 00:49:50;;;;;;;15.18;6.32;;;;;;;12.22;100.00;102605.13;5049850;28;20034;-65
2021/10/09 00:52:16;;;;;;;21.98;6.55;;;;;;;12.19;100.00;102608.47;5049288;28;20164;-64
2021/10/09 00:54:47;;;;;;;11.65;5.60;;;;;;;12.20;100.00;102610.03;5051018;28;20061;-64
2021/10/09 00:57:16;;;;;;;19.07;6.60;;;;;;;12.13;100.00;102607.03;5052461;28;20119;-63
2021/10/09 00:59:43;;;;;;;15.90;6.75;;;;;;;12.14;100.00;102608.59;5050853;28;20295;-66
2021/10/09 01:02:09;;;;;;;13.15;5.57;;;;;;;12.16;100.00;102603.69;5046417;28;20041;-64
2021/10/09 01:04:36;;;;;;;15.05;6.13;;;;;;;12.09;100.00;102611.47;5050936;28;20032;-64
2021/10/09 01:07:03;;;;;;;19.42;5.70;;;;;;;12.14;100.00;102614.00;5035348;28;20037;-62
2021/10/09 01:09:29;;;;;;;12.95;5.65;;;;;;;12.11;100.00;102605.75;5039844;28;20039;-64
2021/10/09 01:11:54;;;;;;;14.60;5.75;;;;;;;12.06;100.00;102609.38;5048690;28;20013;-65
2021/10/09 01:14:23;;;;;;;11.77;5.30;;;;;;;12.03;100.00;102607.34;5047853;28;20040;-62
2021/10/09 01:16:49;;;;;;;11.48;5.30;;;;;;;12.03;100.00;102606.53;5048773;28;20052;-63
2021/10/09 01:19:15;;;;;;;16.42;6.00;;;;;;;12.00;100.00;102605.25;5048627;28;20025;-64
2021/10/09 01:21:47;;;;;;;13.38;5.85;;;;;;;12.02;100.00;102603.03;5066111;28;20041;-65
2021/10/09 01:24:13;;;;;;;12.18;5.43;;;;;;;11.98;100.00;102599.34;5050877;28;20044;-64
2021/10/09 01:26:39;;;;;;;15.35;5.38;;;;;;;11.90;100.00;102596.66;5043678;28;20124;-63
2021/10/09 01:29:09;;;;;;;15.65;6.05;;;;;;;11.92;100.00;102603.34;5040158;28;20017;-63
2021/10/09 01:31:37;;;;;;;18.05;6.15;;;;;;;11.89;100.00;102603.16;5050552;28;20085;-64
2021/10/09 01:34:03;;;;;;;12.50;5.47;;;;;;;11.88;100.00;102602.38;5050369;28;20040;-62
2021/10/09 01:36:38;;;;;;;14.93;6.22;;;;;;;11.85;100.00;102596.81;5043995;28;20215;-63
2021/10/09 01:39:06;;;;;;;12.60;6.10;;;;;;;11.85;100.00;102603.00;5042136;28;20390;-62
2021/10/09 01:41:46;;;;;;;16.33;6.97;;;;;;;11.84;100.00;102600.63;5037882;28;20096;-62
2021/10/09 01:44:13;;;;;;;14.95;6.00;;;;;;;11.85;100.00;102600.31;5051127;28;20040;-67
2021/10/09 01:46:39;;;;;;;19.60;6.20;;;;;;;11.87;100.00;102599.97;5048696;28;20036;-64
2021/10/09 01:49:06;;;;;;;16.70;6.20;;;;;;;11.79;100.00;102588.88;5055828;28;20032;-62
2021/10/09 01:51:32;;;;;;;14.77;6.05;;;;;;;11.70;100.00;102598.06;5049451;28;20104;-62
2021/10/09 01:53:58;;;;;;;16.85;5.88;;;;;;;11.69;100.00;102594.56;5050963;28;20532;-64
2021/10/09 01:56:24;;;;;;;15.00;5.68;;;;;;;11.67;100.00;102601.41;5064152;28;20032;-63
2021/10/09 01:58:50;;;;;;;14.77;5.88;;;;;;;11.62;100.00;102596.91;5049002;28;20409;-63
2021/10/09 02:01:24;;;;;;;14.55;5.75;;;;;;;11.64;100.00;102596.56;5047109;28;20029;-65
2021/10/09 02:03:50;;;;;;;15.18;6.00;;;;;;;11.63;100.00;102598.47;5049905;28;20033;-64
2021/10/09 02:06:17;;;;;;;12.25;5.80;;;;;;;11.64;100.00;102591.19;5045959;28;20025;-63
2021/10/09 02:08:44;;;;;;;15.65;6.50;;;;;;;11.59;100.00;102591.34;5045495;28;20021;-64
2021/10/09 02:11:12;;;;;;;14.48;6.05;;;;;;;11.55;100.00;102593.06;5049935;28;20252;-64
2021/10/09 02:13:54;;;;;;;12.40;5.82;;;;;;;11.46;100.00;102590.31;5052065;28;20017;-64
2021/10/09 02:16:49;;;;;;;16.23;6.38;;;;;;;11.39;100.00;102592.69;5034441;28;20034;-63
2021/10/09 02:24:10;;;;;;;13.43;5.57;;;;;;;11.40;100.00;102593.50;5041683;28;20029;-63
2021/10/09 02:24:56;;;;;;;18.23;5.18;;;;;;;11.30;100.00;102591.06;5049154;28;20051;-63
2021/10/09 02:27:22;;;;;;;12.10;5.07;;;;;;;11.35;100.00;102590.91;5048707;28;20033;-64
2021/10/09 02:29:49;;;;;;;12.45;5.65;;;;;;;11.34;100.00;102581.25;5047904;28;20032;-65
2021/10/09 02:32:15;;;;;;;17.40;5.63;;;;;;;11.35;100.00;102588.22;5044560;28;20029;-62
2021/10/09 02:34:41;;;;;;;14.85;5.88;;;;;;;11.33;100.00;102593.13;5048661;28;20033;-63
2021/10/09 02:37:06;;;;;;;15.27;5.50;;;;;;;11.30;100.00;102591.06;5048779;28;20493;-64
2021/10/09 02:39:37;;;;;;;15.30;6.20;;;;;;;11.30;100.00;102591.88;5044198;28;20029;-63
2021/10/09 02:42:03;;;;;;;16.48;7.38;;;;;;;11.30;100.00;102585.69;5040930;28;20036;-63
2021/10/09 02:44:28;;;;;;;13.05;5.88;;;;;;;11.28;100.00;102587.88;5046924;28;20027;-64
2021/10/09 02:46:54;;;;;;;12.18;5.32;;;;;;;11.29;100.00;102592.97;5049274;28;20025;-63
2021/10/09 02:49:20;;;;;;;17.13;6.65;;;;;;;11.27;100.00;102581.69;5058069;28;20566;-63
2021/10/09 02:51:45;;;;;;;14.60;5.82;;;;;;;11.24;100.00;102584.22;5044849;28;20120;-63
2021/10/09 02:54:11;;;;;;;13.65;5.50;;;;;;;11.20;100.00;102586.75;5048594;28;20532;-67
2021/10/09 02:56:37;;;;;;;15.52;6.53;;;;;;;11.14;100.00;102587.19;5048650;28;20033;-66
2021/10/09 02:59:04;;;;;;;16.23;6.18;;;;;;;11.14;100.00;102587.19;5045194;28;20441;-64
2021/10/09 03:01:29;;;;;;;16.73;6.03;;;;;;;11.08;100.00;102581.13;5048437;28;20033;-63
2021/10/09 03:03:55;;;;;;;16.00;6.18;;;;;;;11.01;100.00;102588.88;5040512;28;20740;-65
2021/10/09 03:06:23;;;;;;;15.80;5.90;;;;;;;10.96;100.00;102590.88;5045419;28;20037;-65
2021/10/09 03:08:49;;;;;;;16.40;5.97;;;;;;;10.99;100.00;102590.28;5045504;28;20363;-65
2021/10/09 03:11:14;;;;;;;14.85;6.05;;;;;;;10.92;100.00;102595.34;5046520;28;20037;-66
2021/10/09 03:13:44;;;;;;;15.40;5.38;;;;;;;10.86;100.00;102592.75;5048544;28;20029;-65
2021/10/09 03:16:10;;;;;;;17.63;6.15;;;;;;;10.78;100.00;102584.63;5049191;28;20036;-64
2021/10/09 03:18:37;;;;;;;15.07;5.85;;;;;;;10.81;100.00;102590.19;5046977;28;20028;-65
2021/10/09 03:21:04;;;;;;;13.43;5.43;;;;;;;10.76;100.00;102593.00;5048255;28;20029;-66
2021/10/09 03:23:31;;;;;;;17.55;5.90;;;;;;;10.69;100.00;102589.97;5044618;28;20040;-64
2021/10/09 03:25:56;;;;;;;13.98;6.10;;;;;;;10.70;100.00;102593.44;5048165;28;20405;-66
2021/10/09 03:28:23;;;;;;;16.98;6.03;;;;;;;10.69;100.00;102594.53;5047202;28;20025;-65
2021/10/09 03:30:50;;;;;;;15.57;6.10;;;;;;;10.67;100.00;102591.34;5047954;28;20029;-64
2021/10/09 03:33:15;;;;;;;16.17;6.07;;;;;;;10.62;100.00;102592.28;5048823;28;20413;-65
2021/10/09 03:35:41;;;;;;;16.88;5.63;;;;;;;10.64;100.00;102595.47;5045329;28;20116;-65
2021/10/09 03:38:07;;;;;;;14.52;5.47;;;;;;;10.66;100.00;102587.09;5046207;28;20037;-65
2021/10/09 03:40:33;;;;;;;13.40;5.75;;;;;;;10.61;100.00;102598.78;5048504;28;20028;-65
2021/10/09 03:43:07;;;;;;;15.02;5.95;;;;;;;10.56;100.00;102593.53;5046946;28;20078;-64
2021/10/09 03:53:35;;;;;;;16.08;6.03;;;;;;;10.51;100.00;102595.53;5045319;28;20029;-64
2021/10/09 03:56:01;;;;;;;17.42;6.20;;;;;;;10.51;100.00;102590.94;5051518;28;20032;-64
2021/10/09 03:58:27;;;;;;;13.63;5.78;;;;;;;10.49;100.00;102601.22;5034679;28;20033;-65
2021/10/09 04:00:52;;;;;;;14.10;5.63;;;;;;;10.54;100.00;102601.09;5051638;28;20051;-65
2021/10/09 04:03:18;;;;;;;13.32;5.65;;;;;;;10.46;100.00;102595.66;5046323;28;20032;-64
2021/10/09 04:05:45;;;;;;;14.73;5.78;;;;;;;10.46;100.00;102599.16;5051926;28;20040;-65
2021/10/09 04:08:11;;;;;;;13.32;5.32;;;;;;;10.38;100.00;102597.19;5032008;28;20135;-64
2021/10/09 04:10:39;;;;;;;16.77;6.13;;;;;;;10.40;100.00;102592.28;5039837;28;20037;-65
2021/10/09 04:13:05;;;;;;;13.82;5.95;;;;;;;10.37;100.00;102589.41;5063712;28;20090;-64
2021/10/09 04:15:31;;;;;;;17.52;6.43;;;;;;;10.37;100.00;102586.72;5052703;28;20028;-65
2021/10/09 04:17:57;;;;;;;11.23;5.28;;;;;;;10.29;100.00;102590.13;5052226;28;20493;-64
2021/10/09 04:20:24;;;;;;;15.75;5.68;;;;;;;10.29;100.00;102587.44;5051227;28;20067;-64
2021/10/09 04:22:50;;;;;;;17.77;6.40;;;;;;;10.23;100.00;102589.44;5043767;28;20033;-62
2021/10/09 04:25:16;;;;;;;14.60;5.35;;;;;;;10.25;100.00;102587.25;5052655;28;20127;-64
2021/10/09 04:27:43;;;;;;;13.23;6.15;;;;;;;10.18;100.00;102588.78;5050096;28;20056;-64
2021/10/09 04:30:09;;;;;;;13.98;5.70;;;;;;;10.21;100.00;102583.56;5064272;28;20067;-64
2021/10/09 04:32:36;;;;;;;13.57;6.32;;;;;;;10.24;100.00;102582.94;5051223;28;20064;-64
2021/10/09 04:35:04;;;;;;;15.55;7.03;;;;;;;10.16;100.00;102582.91;5048827;28;20037;-64
2021/10/09 04:37:29;;;;;;;11.60;5.82;;;;;;;10.15;100.00;102583.97;5051091;28;20539;-64
2021/10/09 04:39:55;;;;;;;11.70;5.47;;;;;;;10.19;100.00;102583.09;5036813;28;20029;-64
2021/10/09 04:42:22;;;;;;;13.40;5.65;;;;;;;10.17;100.00;102587.16;5041853;28;20087;-65
2021/10/09 04:44:48;;;;;;;15.60;5.55;;;;;;;10.12;100.00;102582.72;5049094;28;20444;-64
2021/10/09 04:47:13;;;;;;;18.52;6.80;;;;;;;10.10;100.00;102584.09;5051375;28;20025;-64
2021/10/09 04:49:40;;;;;;;16.13;6.07;;;;;;;10.08;100.00;102580.91;5040765;28;20036;-64
2021/10/09 04:52:06;;;;;;;13.35;5.60;;;;;;;10.00;100.00;102591.28;5060244;28;20040;-64
2021/10/09 04:54:32;;;;;;;10.80;4.88;;;;;;;10.01;100.00;102578.59;5046789;28;20033;-65
2021/10/09 04:56:58;;;;;;;13.63;6.05;;;;;;;9.97;100.00;102593.75;5050855;28;20028;-65
2021/10/09 04:59:23;;;;;;;13.25;5.68;;;;;;;10.00;100.00;102595.88;5049861;28;20055;-64
2021/10/09 05:01:49;;;;;;;16.92;6.22;;;;;;;9.99;99.89;102599.66;5031786;28;20472;-65
2021/10/09 05:04:16;;;;;;;12.27;5.43;;;;;;;9.93;100.00;102601.66;5065462;28;20111;-64
2021/10/09 05:06:42;;;;;;;11.57;5.25;;;;;;;9.83;99.83;102603.78;5048011;28;20155;-65
2021/10/09 05:09:07;;;;;;;11.35;5.28;;;;;;;9.86;100.00;102605.84;5048995;28;20115;-65
2021/10/09 05:11:34;;;;;;;14.48;6.35;;;;;;;9.71;99.80;102609.66;5048347;28;20090;-64
2021/10/09 05:14:00;;;;;;;10.48;5.05;;;;;;;9.65;100.00;102600.09;5037660;28;20064;-65
2021/10/09 05:16:26;;;;;;;16.02;5.85;;;;;;;9.64;100.00;102608.47;5050674;28;20064;-64
2021/10/09 05:18:51;;;;;;;13.80;5.88;;;;;;;9.62;100.00;102605.28;5046031;28;20505;-64
2021/10/09 05:21:17;;;;;;;11.52;5.20;;;;;;;9.63;100.00;102607.69;5046497;28;20552;-64
2021/10/09 05:23:43;;;;;;;15.75;6.10;;;;;;;9.61;99.93;102609.06;5049981;28;20024;-64
2021/10/09 05:26:09;;;;;;;12.10;5.18;;;;;;;9.60;99.82;102613.63;5049683;28;20086;-65
2021/10/09 05:28:43;;;;;;;13.90;5.78;;;;;;;9.68;100.00;102614.81;5046869;28;20033;-65
2021/10/09 05:31:20;;;;;;;13.25;5.40;;;;;;;9.60;99.66;102619.00;5043190;28;20144;-65
2021/10/09 05:33:46;;;;;;;11.82;5.32;;;;;;;9.62;100.00;102614.13;5066917;28;20087;-65
2021/10/09 05:36:11;;;;;;;13.48;5.93;;;;;;;9.63;100.00;102623.00;5051758;28;20444;-64
2021/10/09 05:38:38;;;;;;;11.80;5.72;;;;;;;9.62;100.00;102624.13;5045135;28;20039;-65
2021/10/09 05:41:04;;;;;;;12.18;5.25;;;;;;;9.62;99.88;102624.13;5050897;28;20405;-65
2021/10/09 05:43:33;;;;;;;15.77;6.20;;;;;;;9.58;100.00;102620.44;5036154;28;20048;-65
2021/10/09 05:46:00;;;;;;;11.60;5.43;;;;;;;9.53;99.78;102623.19;5049898;28;20482;-64
2021/10/09 05:48:27;;;;;;;15.32;5.28;;;;;;;9.53;99.88;102620.50;5049311;28;20025;-65
2021/10/09 05:53:52;;;;;;;15.88;4.82;;;;;;;9.49;100.00;102627.59;5049933;28;20036;-65
2021/10/09 05:59:06;;;;;;;10.13;4.80;;;;;;;9.46;99.89;102633.56;5047989;28;20145;-65
2021/10/09 06:48:41;;;;;;;11.45;5.28;;;;;;;9.51;100.00;102657.66;5060227;28;20037;-65
2021/10/09 06:59:26;;;;;;;14.90;5.65;;;;;;;9.59;100.00;102660.47;5054301;28;20033;-64
2021/10/09 06:59:34;;;;;;;12.27;5.35;;;;;;;9.56;100.00;102663.75;5040541;28;20085;-64
2021/10/09 07:02:00;;;;;;;;;;;;;;;9.54;100.00;102670.53;5048754;28;20028;-64
2021/10/09 07:04:27;;;;;;;10.18;5.38;;;;;;;9.59;100.00;102665.03;5048733;28;19947;-63
2021/10/09 07:06:54;;;;;;;12.75;5.43;;;;;;;9.58;100.00;102668.84;5065081;28;20033;-63
2021/10/09 07:09:42;;;;;;;13.68;5.00;;;;;;;9.52;100.00;102670.84;5046486;28;20037;-64
2021/10/09 07:12:15;;;;;;;11.13;4.95;;;;;;;9.66;100.00;102678.88;5047935;28;20063;-65
2021/10/09 07:14:41;;;;;;;11.07;5.18;;;;;;;9.79;100.00;102680.81;5042793;28;20059;-64
2021/10/09 07:17:07;;;;;;;13.15;5.60;;;;;;;9.83;100.00;102679.88;5052652;28;20033;-64
2021/10/09 07:19:32;;;;;;;14.10;5.45;;;;;;;9.90;100.00;102683.00;5048230;28;20029;-65
2021/10/09 07:21:58;;;;;;;13.45;5.20;;;;;;;10.00;100.00;102680.09;5052187;28;20034;-64
2021/10/09 07:24:24;;;;;;;15.02;5.13;;;;;;;10.13;100.00;102683.09;5052774;28;20079;-64
2021/10/09 07:26:52;;;;;;;13.95;5.70;;;;;;;10.30;100.00;102684.06;5043933;28;20052;-64
2021/10/09 07:29:18;;;;;;;14.60;5.05;;;;;;;10.27;100.00;102687.38;5051168;28;20079;-65
2021/10/09 07:31:45;;;;;;;11.65;5.10;;;;;;;10.45;100.00;102685.66;5052235;28;20060;-63
2021/10/09 07:34:10;;;;;;;12.05;5.20;;;;;;;10.63;100.00;102679.28;5053757;28;20068;-65
2021/10/09 07:36:36;;;;;;;12.93;5.32;;;;;;;10.78;99.52;102681.66;5052229;28;20082;-65
2021/10/09 07:39:01;;;;;;;15.45;5.57;;;;;;;10.99;99.26;102679.25;5050389;28;20097;-65
2021/10/09 07:41:26;;;;;;;11.95;5.55;;;;;;;11.08;97.29;102685.47;5052267;28;20029;-64
2021/10/09 07:43:52;;;;;;;11.00;5.10;;;;;;;11.28;97.34;102696.56;5048425;28;20485;-65
2021/10/09 07:46:17;;;;;;;12.77;4.95;;;;;;;11.54;96.12;102691.28;5051435;28;20110;-64
2021/10/09 07:48:43;;;;;;;13.13;5.13;;;;;;;11.55;94.20;102688.31;5052560;28;20017;-65
2021/10/09 07:51:08;;;;;;;10.43;4.55;;;;;;;11.75;94.07;102700.47;5053920;28;20489;-65
2021/10/09 07:53:34;;;;;;;12.80;5.00;;;;;;;11.95;92.65;102699.09;5050940;28;20437;-65
2021/10/09 07:55:59;;;;;;;9.80;5.18;;;;;;;12.09;92.48;102699.78;5052368;28;20520;-65
2021/10/09 07:58:25;;;;;;;12.85;5.28;;;;;;;12.18;92.47;102704.09;5052254;28;20025;-65
2021/10/09 08:00:50;;;;;;;10.65;4.70;;;;;;;12.15;90.83;102696.63;5050809;28;20036;-65
2021/10/09 08:03:18;;;;;;;11.10;5.05;;;;;;;12.28;90.49;102703.81;5053528;28;20110;-65
2021/10/09 08:05:43;;;;;;;12.10;4.75;;;;;;;12.41;90.00;102705.56;5053125;28;20406;-65
2021/10/09 08:08:09;;;;;;;11.45;5.25;;;;;;;12.47;90.23;102717.81;5049981;28;20037;-65
2021/10/09 08:10:35;;;;;;;9.10;4.38;;;;;;;12.50;90.36;102705.59;5040617;28;20043;-65
2021/10/09 08:13:00;;;;;;;9.80;4.40;;;;;;;12.58;89.11;102705.59;5051853;28;20037;-64
2021/10/09 08:15:26;;;;;;;11.02;5.10;;;;;;;12.61;86.27;102707.66;5051236;28;20382;-66
2021/10/09 08:17:51;;;;;;;13.77;4.95;;;;;;;12.73;86.31;102706.22;5051835;28;20107;-65
2021/10/09 08:20:17;;;;;;;10.95;4.88;;;;;;;12.80;86.54;102718.16;5044309;28;20497;-64
2021/10/09 08:22:55;;;;;;;12.63;4.70;;;;;;;12.96;85.29;102713.06;5051797;28;20146;-65
2021/10/09 08:40:58;;;;;;;10.80;4.57;;;;;;;13.45;82.43;102705.19;5065508;28;20148;-65
2021/10/09 08:43:23;;;;;;;9.43;4.57;;;;;;;13.58;82.73;102703.41;5050033;28;20109;-65
2021/10/09 08:45:49;;;;;;;10.57;4.40;;;;;;;13.74;82.47;102700.94;5051296;28;20683;-64
2021/10/09 08:48:17;;;;;;;8.13;4.55;;;;;;;13.93;81.86;102712.16;5051006;28;20032;-64
2021/10/09 08:50:43;;;;;;;9.63;4.47;;;;;;;14.13;81.03;102708.72;5047544;28;20067;-64
2021/10/09 08:53:11;;;;;;;8.40;4.03;;;;;;;14.20;78.24;102698.97;5051505;28;20045;-64
2021/10/09 08:55:44;;;;;;;9.27;4.35;;;;;;;14.32;78.59;102692.84;5051930;28;20382;-66
2021/10/09 08:58:28;;;;;;;10.73;4.72;;;;;;;14.44;76.82;102696.41;5049926;28;20083;-65
2021/10/09 09:09:17;;;;;;;8.40;3.92;;;;;;;15.41;74.51;102696.00;5045083;28;20490;-65
2021/10/09 09:40:07;;;;;;;6.45;3.00;;;;;;;15.92;63.29;102684.53;5048073;28;20055;-64
2021/10/09 09:42:42;;;;;;;6.22;2.92;;;;;;;16.03;62.33;102691.88;5045078;28;20116;-65
2021/10/09 09:45:10;;;;;;;8.95;3.70;;;;;;;16.07;64.01;102678.38;5043105;28;20029;-65
2021/10/09 09:47:39;;;;;;;7.13;2.72;;;;;;;16.03;59.52;102682.91;5042469;28;20028;-66
2021/10/09 09:50:08;;;;;;;6.85;3.08;;;;;;;16.02;61.82;102674.00;5050632;28;20390;-65
2021/10/09 09:52:36;;;;;;;6.75;3.03;;;;;;;16.16;63.16;102671.69;5047639;28;20037;-65
2021/10/09 09:55:03;;;;;;;7.18;3.00;;;;;;;16.30;61.70;102665.09;5050501;28;20359;-65
2021/10/09 09:57:30;;;;;;;9.95;2.92;;;;;;;16.36;62.45;102671.88;5051024;28;20040;-65
2021/10/09 09:59:57;;;;;;;7.45;2.97;;;;;;;16.36;62.72;102669.94;5044407;28;20029;-64
2021/10/09 10:02:26;;;;;;;7.10;2.67;;;;;;;16.45;62.11;102667.91;5048704;28;20108;-64
2021/10/09 10:04:52;;;;;;;6.30;2.40;;;;;;;16.50;59.99;102677.75;5046824;28;20618;-65
2021/10/09 10:07:18;;;;;;;4.85;2.65;;;;;;;16.55;57.92;102669.38;5039474;28;20029;-65
2021/10/09 10:09:44;;;;;;;6.05;2.70;;;;;;;16.47;55.70;102676.50;5047246;28;20039;-65
2021/10/09 10:12:09;;;;;;;5.40;2.58;;;;;;;16.48;57.71;102666.41;5042433;28;20036;-65
2021/10/09 10:14:36;;;;;;;5.88;2.67;;;;;;;16.46;56.73;102671.38;5048087;28;20043;-65
2021/10/09 10:17:01;;;;;;;5.38;2.65;;;;;;;16.52;56.29;102672.75;5049388;28;20138;-65
2021/10/09 10:19:49;;;;;;;5.93;2.95;;;;;;;16.56;56.87;102676.38;5043756;28;20059;-65
2021/10/09 10:22:15;;;;;;;4.13;2.58;;;;;;;16.51;56.09;102671.19;5048120;28;20029;-66
2021/10/09 10:24:46;;;;;;;6.85;2.30;;;;;;;16.51;55.44;102671.97;5048244;28;20107;-65
2021/10/09 10:27:44;;;;;;;8.73;2.80;;;;;;;16.58;56.07;102669.47;5048960;28;20041;-65
2021/10/09 10:30:16;;;;;;;4.97;2.47;;;;;;;16.65;55.94;102668.84;5044769;28;20032;-65
2021/10/09 10:32:53;;;;;;;6.35;2.95;;;;;;;16.68;52.75;102677.16;5049821;28;20037;-65
2021/10/09 10:35:38;;;;;;;7.97;2.85;;;;;;;16.65;53.52;102674.28;5046247;28;20421;-65
2021/10/09 10:38:08;;;;;;;4.93;2.50;;;;;;;16.62;52.40;102669.56;5037015;28;20406;-65
2021/10/09 10:40:51;;;;;;;10.05;2.42;;;;;;;16.65;52.54;102666.94;5046178;28;20059;-65
2021/10/09 10:46:42;;;;;;;4.72;2.40;;;;;;;16.44;50.00;102665.50;5044311;28;20036;-65
2021/10/09 10:49:14;;;;;;;6.13;2.25;;;;;;;16.47;50.90;102659.38;5044234;28;20596;-65
2021/10/09 10:52:25;;;;;;;4.20;2.53;;;;;;;16.55;50.40;102669.38;5045551;28;20059;-65
2021/10/09 10:54:35;;;;;;;5.65;3.03;;;;;;;16.57;50.94;102670.59;5032265;28;20057;-65
2021/10/09 10:57:03;;;;;;;5.05;2.45;;;;;;;16.54;50.31;102670.50;5047093;28;20041;-65
2021/10/09 11:02:15;;;;;;;3.65;2.28;;;;;;;16.69;51.04;102667.81;5044098;28;20043;-65
2021/10/09 11:04:43;;;;;;;6.95;2.20;;;;;;;16.69;50.91;102662.38;5044740;28;20111;-65
2021/10/09 11:07:09;;;;;;;5.13;2.60;;;;;;;16.68;51.43;102658.09;5044039;28;20543;-65
2021/10/09 11:09:36;;;;;;;7.45;2.55;;;;;;;16.72;51.03;102659.00;5036160;28;20029;-65
2021/10/09 11:12:02;;;;;;;5.60;2.65;;;;;;;16.78;51.02;102654.09;5047873;28;20040;-65
2021/10/09 11:14:29;;;;;;;4.45;2.30;;;;;;;16.73;51.45;102655.13;5048367;28;20032;-65
2021/10/09 11:17:03;;;;;;;7.45;2.38;;;;;;;16.75;51.80;102654.75;5049911;28;20056;-65
2021/10/09 11:19:42;;;;;;;4.57;2.40;;;;;;;16.87;51.13;102652.00;5043761;28;20040;-65
2021/10/09 11:22:08;;;;;;;4.78;2.40;;;;;;;16.86;51.35;102634.84;5048320;28;20041;-65
2021/10/09 11:24:43;;;;;;;7.30;2.65;;;;;;;16.99;52.39;102647.25;5049607;28;20033;-65
2021/10/09 11:27:08;;;;;;;4.60;2.08;;;;;;;17.05;51.75;102642.38;5039998;28;20041;-65
2021/10/09 11:29:34;;;;;;;6.15;2.83;;;;;;;17.08;52.35;102641.66;5047921;28;20041;-64
2021/10/09 11:32:07;;;;;;;4.65;2.28;;;;;;;17.10;51.24;102642.91;5042582;28;20489;-65
2021/10/09 11:34:49;;;;;;;4.38;2.17;;;;;;;17.15;51.38;102639.91;5047991;28;20107;-65
2021/10/09 11:37:15;;;;;;;;;;;;;;;17.01;52.00;102644.97;5041070;28;20150;-65
2021/10/09 11:39:50;;;;;;;4.63;2.40;;;;;;;17.09;50.06;102641.31;5041414;28;19931;-65
2021/10/09 11:42:19;;;;;;;5.40;2.47;;;;;;;17.06;50.93;102642.03;5045087;28;20029;-65
2021/10/09 11:45:05;;;;;;;5.13;2.10;;;;;;;17.15;50.99;102636.38;5048078;28;20052;-65
2021/10/09 11:56:21;;;;;;;6.22;2.72;;;;;;;17.09;50.20;102633.13;4961683;28;20532;-65
2021/10/09 11:58:54;;;;;;;5.53;2.30;;;;;;;17.11;50.61;102638.25;4964528;28;20046;-65
2021/10/09 12:01:41;;;;;;;4.32;2.08;;;;;;;17.15;49.59;102639.09;4970701;28;20046;-65
2021/10/09 12:04:20;;;;;;;6.47;2.38;;;;;;;17.24;50.42;102633.50;4966013;28;20086;-65
2021/10/09 12:06:49;;;;;;;4.28;2.17;;;;;;;17.20;49.93;102629.91;4967108;28;20046;-65
2021/10/09 12:09:16;;;;;;;4.22;2.42;;;;;;;17.18;49.48;102630.25;4967534;28;20621;-65
2021/10/09 12:11:43;;;;;;;4.57;2.35;;;;;;;17.24;49.40;102631.59;4962554;28;20186;-65
2021/10/09 12:14:10;;;;;;;4.32;2.45;;;;;;;17.23;49.07;102626.50;4967365;28;20094;-65
2021/10/09 12:16:40;;;;;;;4.32;2.30;;;;;;;17.35;49.38;102629.09;4971065;28;20067;-65
2021/10/09 12:19:06;;;;;;;3.50;1.98;;;;;;;17.30;49.66;102619.28;4967881;28;20034;-65
2021/10/09 12:21:37;;;;;;;3.63;2.15;;;;;;;17.41;49.28;102619.53;4970981;28;20589;-65
2021/10/09 12:24:14;;;;;;;4.13;2.03;;;;;;;17.41;49.64;102623.06;4970961;28;20523;-64
2021/10/09 12:26:39;;;;;;;5.53;2.33;;;;;;;17.53;48.44;102622.19;4991598;28;20082;-65
2021/10/09 12:29:06;;;;;;;5.70;2.03;;;;;;;17.44;48.54;102618.84;5049151;28;20020;-65
2021/10/09 12:31:35;;;;;;;6.45;2.17;;;;;;;17.50;47.93;102614.75;5052133;28;20037;-65
2021/10/09 12:34:01;;;;;;;4.22;2.25;;;;;;;17.54;47.29;102615.59;5051942;28;20036;-65
2021/10/09 12:36:36;;;;;;;2.90;1.95;;;;;;;17.45;46.90;102614.97;5044237;28;20029;-65
2021/10/09 12:39:24;;;;;;;3.10;1.63;;;;;;;17.32;46.86;102608.84;5044959;28;20174;-65
2021/10/09 12:41:52;;;;;;;4.65;1.80;;;;;;;17.38;46.80;102607.41;5049077;28;20037;-65
2021/10/09 12:44:19;;;;;;;5.18;2.30;;;;;;;17.50;47.01;102612.78;5049073;28;20087;-65
2021/10/09 12:46:45;;;;;;;3.45;2.28;;;;;;;17.44;47.72;102605.22;5049392;28;20108;-65
2021/10/09 12:49:11;;;;;;;2.42;1.75;;;;;;;17.52;46.57;102599.59;5050873;28;20033;-65
2021/10/09 12:51:36;;;;;;;3.67;1.88;;;;;;;17.58;46.18;102600.13;5051990;28;20382;-65
2021/10/09 12:54:06;;;;;;;4.65;2.10;;;;;;;17.67;45.55;102601.50;5051073;28;20024;-65
2021/10/09 12:56:36;;;;;;;5.07;1.77;;;;;;;17.76;46.46;102593.94;5050080;28;20479;-65
2021/10/09 12:59:02;;;;;;;3.65;2.08;;;;;;;17.78;46.02;102588.13;5047952;28;20060;-65
2021/10/09 13:01:29;;;;;;;3.40;2.10;;;;;;;17.83;45.74;102585.09;5051132;28;20096;-65
2021/10/09 13:03:55;;;;;;;3.35;1.88;;;;;;;17.95;45.83;102590.44;5048008;28;20039;-65
2021/10/09 13:06:21;;;;;;;2.97;1.67;;;;;;;18.00;47.09;102585.50;5050595;28;20062;-65
2021/10/09 13:08:46;;;;;;;4.43;1.90;;;;;;;18.01;46.25;102581.63;5048419;28;20041;-65
2021/10/09 13:11:12;;;;;;;4.05;2.00;;;;;;;18.08;45.35;102586.44;5049818;28;20123;-65
2021/10/09 13:13:39;;;;;;;4.60;2.13;;;;;;;18.02;44.89;102579.72;5050316;28;20017;-65
2021/10/09 13:16:06;;;;;;;5.28;2.15;;;;;;;18.08;44.92;102574.75;5049793;28;20175;-65
2021/10/09 13:18:31;;;;;;;2.88;1.67;;;;;;;18.16;46.07;102574.53;5047070;28;20033;-65
2021/10/09 13:20:58;;;;;;;5.53;2.00;;;;;;;18.17;46.55;102569.88;5050231;28;20037;-65
2021/10/09 13:23:23;;;;;;;7.88;2.80;;;;;;;18.35;45.70;102568.28;5051462;28;20024;-65
2021/10/09 13:25:48;;;;;;;3.90;1.90;;;;;;;18.40;45.67;102566.06;5050239;28;20167;-65
2021/10/09 13:28:14;;;;;;;5.80;2.25;;;;;;;18.42;45.62;102566.53;5050981;28;20402;-65
2021/10/09 13:30:40;;;;;;;4.80;2.22;;;;;;;18.43;45.18;102561.81;5049489;28;20535;-65
2021/10/09 13:33:05;;;;;;;3.25;1.58;;;;;;;18.40;45.33;102559.81;5051600;28;20029;-65
2021/10/09 13:35:31;;;;;;;6.55;1.98;;;;;;;18.44;45.90;102566.16;5051450;28;20505;-65
2021/10/09 13:37:59;;;;;;;3.65;2.08;;;;;;;18.36;46.67;102557.00;5050301;28;20033;-65